sensor_id;sensor_type;location;lat;lon;timestamp;temperature;humidity
7234;DHT22;3658;47.992;10.158;2024-02-15T00:01:15;21.60;38.70
7234;DHT22;3658;47.992;10.158;2024-02-15T00:03:41;21.60;38.60
7234;DHT22;3658;47.992;10.158;2024-02-15T00:06:10;21.60;38.80
7234;DHT22;3658;47.992;10.158;2024-02-15T00:08:37;21.60;38.80
7234;DHT22;3658;47.992;10.158;2024-02-15T00:11:04;21.60;38.80
7234;DHT22;3658;47.992;10.158;2024-02-15T00:13:31;21.60;38.80
7234;DHT22;3658;47.992;10.158;2024-02-15T00:15:59;21.70;38.90
7234;DHT22;3658;47.992;10.158;2024-02-15T00:18:26;21.70;38.90
7234;DHT22;3658;47.992;10.158;2024-02-15T00:20:53;21.70;38.90
7234;DHT22;3658;47.992;10.158;2024-02-15T00:23:21;21.70;38.90
7234;DHT22;3658;47.992;10.158;2024-02-15T00:25:48;21.70;38.90
7234;DHT22;3658;47.992;10.158;2024-02-15T00:28:15;21.70;38.90
7234;DHT22;3658;47.992;10.158;2024-02-15T00:30:42;21.70;38.80
7234;DHT22;3658;47.992;10.158;2024-02-15T00:33:09;21.70;38.90
7234;DHT22;3658;47.992;10.158;2024-02-15T00:35:36;21.70;38.80
7234;DHT22;3658;47.992;10.158;2024-02-15T00:38:03;21.70;38.80
7234;DHT22;3658;47.992;10.158;2024-02-15T00:40:33;21.70;38.70
7234;DHT22;3658;47.992;10.158;2024-02-15T00:43:00;21.70;38.50
7234;DHT22;3658;47.992;10.158;2024-02-15T00:45:26;21.70;38.50
7234;DHT22;3658;47.992;10.158;2024-02-15T00:47:53;21.70;38.30
7234;DHT22;3658;47.992;10.158;2024-02-15T00:50:21;21.70;38.20
7234;DHT22;3658;47.992;10.158;2024-02-15T00:52:48;21.70;38.20
7234;DHT22;3658;47.992;10.158;2024-02-15T00:55:15;21.70;38.10
7234;DHT22;3658;47.992;10.158;2024-02-15T00:57:43;21.70;38.00
7234;DHT22;3658;47.992;10.158;2024-02-15T01:00:11;21.70;38.00
7234;DHT22;3658;47.992;10.158;2024-02-15T01:02:38;21.70;38.00
7234;DHT22;3658;47.992;10.158;2024-02-15T01:05:05;21.70;38.50
7234;DHT22;3658;47.992;10.158;2024-02-15T01:07:32;21.70;37.80
7234;DHT22;3658;47.992;10.158;2024-02-15T01:09:59;21.70;37.80
7234;DHT22;3658;47.992;10.158;2024-02-15T01:12:25;21.70;37.80
7234;DHT22;3658;47.992;10.158;2024-02-15T01:14:54;21.70;37.70
7234;DHT22;3658;47.992;10.158;2024-02-15T01:17:21;21.70;37.70
7234;DHT22;3658;47.992;10.158;2024-02-15T01:19:48;21.70;37.70
7234;DHT22;3658;47.992;10.158;2024-02-15T01:22:16;21.60;37.60
7234;DHT22;3658;47.992;10.158;2024-02-15T01:24:43;21.70;37.60
7234;DHT22;3658;47.992;10.158;2024-02-15T01:27:15;21.70;37.60
7234;DHT22;3658;47.992;10.158;2024-02-15T01:30:10;21.70;37.60
7234;DHT22;3658;47.992;10.158;2024-02-15T01:32:37;21.70;37.50
7234;DHT22;3658;47.992;10.158;2024-02-15T01:35:07;21.70;37.50
7234;DHT22;3658;47.992;10.158;2024-02-15T01:37:35;21.70;38.10
7234;DHT22;3658;47.992;10.158;2024-02-15T01:40:03;21.70;37.50
7234;DHT22;3658;47.992;10.158;2024-02-15T01:42:32;21.70;37.50
7234;DHT22;3658;47.992;10.158;2024-02-15T01:44:58;21.70;37.40
7234;DHT22;3658;47.992;10.158;2024-02-15T01:47:27;21.70;37.30
7234;DHT22;3658;47.992;10.158;2024-02-15T01:49:54;21.70;37.40
7234;DHT22;3658;47.992;10.158;2024-02-15T01:52:22;21.70;37.30
7234;DHT22;3658;47.992;10.158;2024-02-15T01:54:51;21.70;37.30
7234;DHT22;3658;47.992;10.158;2024-02-15T01:57:19;21.70;37.30
7234;DHT22;3658;47.992;10.158;2024-02-15T01:59:47;21.70;37.20
7234;DHT22;3658;47.992;10.158;2024-02-15T02:02:16;21.70;37.20
7234;DHT22;3658;47.992;10.158;2024-02-15T02:04:45;21.70;37.30
7234;DHT22;3658;47.992;10.158;2024-02-15T02:07:12;21.70;37.20
7234;DHT22;3658;47.992;10.158;2024-02-15T02:09:40;21.70;37.20
7234;DHT22;3658;47.992;10.158;2024-02-15T02:12:07;21.70;37.20
7234;DHT22;3658;47.992;10.158;2024-02-15T02:14:34;21.70;37.20
7234;DHT22;3658;47.992;10.158;2024-02-15T02:17:11;21.70;37.20
7234;DHT22;3658;47.992;10.158;2024-02-15T02:19:39;21.70;37.10
7234;DHT22;3658;47.992;10.158;2024-02-15T02:22:09;21.70;37.20
7234;DHT22;3658;47.992;10.158;2024-02-15T02:24:40;21.70;37.10
7234;DHT22;3658;47.992;10.158;2024-02-15T02:27:13;21.70;37.10
7234;DHT22;3658;47.992;10.158;2024-02-15T02:29:42;21.70;37.10
7234;DHT22;3658;47.992;10.158;2024-02-15T02:32:11;21.70;37.10
7234;DHT22;3658;47.992;10.158;2024-02-15T02:34:38;21.70;37.00
7234;DHT22;3658;47.992;10.158;2024-02-15T02:37:06;21.70;37.00
7234;DHT22;3658;47.992;10.158;2024-02-15T02:39:33;21.70;37.00
7234;DHT22;3658;47.992;10.158;2024-02-15T02:42:00;21.70;37.00
7234;DHT22;3658;47.992;10.158;2024-02-15T02:44:28;21.70;36.90
7234;DHT22;3658;47.992;10.158;2024-02-15T02:46:55;21.70;37.00
7234;DHT22;3658;47.992;10.158;2024-02-15T02:49:22;21.70;37.00
7234;DHT22;3658;47.992;10.158;2024-02-15T02:51:49;21.70;37.00
7234;DHT22;3658;47.992;10.158;2024-02-15T02:54:16;21.70;36.90
7234;DHT22;3658;47.992;10.158;2024-02-15T02:56:43;21.70;36.90
7234;DHT22;3658;47.992;10.158;2024-02-15T02:59:10;21.70;37.00
7234;DHT22;3658;47.992;10.158;2024-02-15T03:01:39;21.70;37.00
7234;DHT22;3658;47.992;10.158;2024-02-15T03:04:06;21.70;36.90
7234;DHT22;3658;47.992;10.158;2024-02-15T03:06:33;21.70;36.90
7234;DHT22;3658;47.992;10.158;2024-02-15T03:09:01;21.70;36.80
7234;DHT22;3658;47.992;10.158;2024-02-15T03:11:32;21.70;36.90
7234;DHT22;3658;47.992;10.158;2024-02-15T03:14:00;21.70;36.90
7234;DHT22;3658;47.992;10.158;2024-02-15T03:16:29;21.70;36.80
7234;DHT22;3658;47.992;10.158;2024-02-15T03:18:57;21.70;36.80
7234;DHT22;3658;47.992;10.158;2024-02-15T03:21:26;21.70;36.80
7234;DHT22;3658;47.992;10.158;2024-02-15T03:23:53;21.70;36.80
7234;DHT22;3658;47.992;10.158;2024-02-15T03:26:29;21.70;36.70
7234;DHT22;3658;47.992;10.158;2024-02-15T03:29:01;21.70;36.70
7234;DHT22;3658;47.992;10.158;2024-02-15T03:31:28;21.70;36.80
7234;DHT22;3658;47.992;10.158;2024-02-15T03:33:57;21.70;36.70
7234;DHT22;3658;47.992;10.158;2024-02-15T03:36:25;21.70;36.80
7234;DHT22;3658;47.992;10.158;2024-02-15T03:38:52;21.70;36.70
7234;DHT22;3658;47.992;10.158;2024-02-15T03:41:19;21.70;36.70
7234;DHT22;3658;47.992;10.158;2024-02-15T03:43:46;21.70;36.70
7234;DHT22;3658;47.992;10.158;2024-02-15T03:46:13;21.70;36.70
7234;DHT22;3658;47.992;10.158;2024-02-15T03:48:42;21.70;36.70
7234;DHT22;3658;47.992;10.158;2024-02-15T03:51:16;21.70;36.70
7234;DHT22;3658;47.992;10.158;2024-02-15T03:53:44;21.70;36.70
7234;DHT22;3658;47.992;10.158;2024-02-15T03:56:11;21.70;36.70
7234;DHT22;3658;47.992;10.158;2024-02-15T03:58:38;21.70;36.70
7234;DHT22;3658;47.992;10.158;2024-02-15T04:01:05;21.70;36.70
7234;DHT22;3658;47.992;10.158;2024-02-15T04:03:35;21.70;36.70
7234;DHT22;3658;47.992;10.158;2024-02-15T04:06:02;21.70;36.70
7234;DHT22;3658;47.992;10.158;2024-02-15T04:08:31;21.70;36.60
7234;DHT22;3658;47.992;10.158;2024-02-15T04:10:58;21.70;36.60
7234;DHT22;3658;47.992;10.158;2024-02-15T04:13:25;21.70;36.60
7234;DHT22;3658;47.992;10.158;2024-02-15T04:15:52;21.70;36.60
7234;DHT22;3658;47.992;10.158;2024-02-15T04:18:19;21.70;36.60
7234;DHT22;3658;47.992;10.158;2024-02-15T04:20:46;21.70;36.50
7234;DHT22;3658;47.992;10.158;2024-02-15T04:23:14;21.70;36.60
7234;DHT22;3658;47.992;10.158;2024-02-15T04:25:42;21.70;36.60
7234;DHT22;3658;47.992;10.158;2024-02-15T04:28:16;21.70;36.60
7234;DHT22;3658;47.992;10.158;2024-02-15T04:30:43;21.70;36.50
7234;DHT22;3658;47.992;10.158;2024-02-15T04:33:10;21.70;36.50
7234;DHT22;3658;47.992;10.158;2024-02-15T04:35:38;21.60;36.50
7234;DHT22;3658;47.992;10.158;2024-02-15T04:38:04;21.70;36.50
7234;DHT22;3658;47.992;10.158;2024-02-15T04:40:33;21.70;36.60
7234;DHT22;3658;47.992;10.158;2024-02-15T04:43:02;21.60;36.40
7234;DHT22;3658;47.992;10.158;2024-02-15T04:45:29;21.70;36.50
7234;DHT22;3658;47.992;10.158;2024-02-15T04:47:57;21.70;36.50
7234;DHT22;3658;47.992;10.158;2024-02-15T04:50:27;21.70;36.40
7234;DHT22;3658;47.992;10.158;2024-02-15T04:52:54;21.70;36.40
7234;DHT22;3658;47.992;10.158;2024-02-15T04:55:22;21.70;36.50
7234;DHT22;3658;47.992;10.158;2024-02-15T04:57:48;21.70;36.50
7234;DHT22;3658;47.992;10.158;2024-02-15T05:00:22;21.70;36.40
7234;DHT22;3658;47.992;10.158;2024-02-15T05:02:51;21.70;36.40
7234;DHT22;3658;47.992;10.158;2024-02-15T05:05:18;21.70;36.50
7234;DHT22;3658;47.992;10.158;2024-02-15T05:07:45;21.70;36.50
7234;DHT22;3658;47.992;10.158;2024-02-15T05:10:14;21.70;36.40
7234;DHT22;3658;47.992;10.158;2024-02-15T05:12:41;21.70;36.40
7234;DHT22;3658;47.992;10.158;2024-02-15T05:15:09;21.70;36.40
7234;DHT22;3658;47.992;10.158;2024-02-15T05:17:38;21.70;36.40
7234;DHT22;3658;47.992;10.158;2024-02-15T05:20:07;21.70;36.40
7234;DHT22;3658;47.992;10.158;2024-02-15T05:22:37;21.70;36.40
7234;DHT22;3658;47.992;10.158;2024-02-15T05:25:05;21.70;36.40
7234;DHT22;3658;47.992;10.158;2024-02-15T05:27:33;21.70;37.10
7234;DHT22;3658;47.992;10.158;2024-02-15T05:30:02;21.70;36.40
7234;DHT22;3658;47.992;10.158;2024-02-15T05:32:32;21.70;36.40
7234;DHT22;3658;47.992;10.158;2024-02-15T05:35:00;21.70;36.40
7234;DHT22;3658;47.992;10.158;2024-02-15T05:37:27;21.70;36.40
7234;DHT22;3658;47.992;10.158;2024-02-15T05:39:54;21.70;36.40
7234;DHT22;3658;47.992;10.158;2024-02-15T05:42:21;21.70;36.40
7234;DHT22;3658;47.992;10.158;2024-02-15T05:44:49;21.70;36.40
7234;DHT22;3658;47.992;10.158;2024-02-15T05:47:16;21.70;36.40
7234;DHT22;3658;47.992;10.158;2024-02-15T05:49:43;21.70;36.30
7234;DHT22;3658;47.992;10.158;2024-02-15T05:52:12;21.70;36.30
7234;DHT22;3658;47.992;10.158;2024-02-15T05:54:38;21.70;36.30
7234;DHT22;3658;47.992;10.158;2024-02-15T05:57:07;21.70;36.30
7234;DHT22;3658;47.992;10.158;2024-02-15T05:59:34;21.60;36.20
7234;DHT22;3658;47.992;10.158;2024-02-15T06:02:01;21.70;36.30
7234;DHT22;3658;47.992;10.158;2024-02-15T06:04:28;21.70;36.30
7234;DHT22;3658;47.992;10.158;2024-02-15T06:06:56;21.70;36.30
7234;DHT22;3658;47.992;10.158;2024-02-15T06:09:27;21.70;36.30
7234;DHT22;3658;47.992;10.158;2024-02-15T06:11:55;21.60;36.10
7234;DHT22;3658;47.992;10.158;2024-02-15T06:14:23;21.60;36.20
7234;DHT22;3658;47.992;10.158;2024-02-15T06:16:50;21.70;36.30
7234;DHT22;3658;47.992;10.158;2024-02-15T06:19:18;21.70;36.90
7234;DHT22;3658;47.992;10.158;2024-02-15T06:21:44;21.60;36.10
7234;DHT22;3658;47.992;10.158;2024-02-15T06:24:12;21.70;36.20
7234;DHT22;3658;47.992;10.158;2024-02-15T06:26:41;21.70;36.20
7234;DHT22;3658;47.992;10.158;2024-02-15T06:29:08;21.70;36.20
7234;DHT22;3658;47.992;10.158;2024-02-15T06:31:52;21.70;36.20
7234;DHT22;3658;47.992;10.158;2024-02-15T06:34:36;21.70;36.20
7234;DHT22;3658;47.992;10.158;2024-02-15T06:37:35;21.70;36.20
7234;DHT22;3658;47.992;10.158;2024-02-15T06:40:20;21.60;36.10
7234;DHT22;3658;47.992;10.158;2024-02-15T06:42:48;21.70;36.20
7234;DHT22;3658;47.992;10.158;2024-02-15T06:45:15;21.60;36.10
7234;DHT22;3658;47.992;10.158;2024-02-15T06:47:43;21.70;36.20
7234;DHT22;3658;47.992;10.158;2024-02-15T06:50:11;21.70;36.10
7234;DHT22;3658;47.992;10.158;2024-02-15T06:52:38;21.70;36.10
7234;DHT22;3658;47.992;10.158;2024-02-15T06:55:07;21.70;36.20
7234;DHT22;3658;47.992;10.158;2024-02-15T06:57:34;21.60;36.10
7234;DHT22;3658;47.992;10.158;2024-02-15T07:00:02;21.60;36.10
7234;DHT22;3658;47.992;10.158;2024-02-15T07:02:29;21.60;36.00
7234;DHT22;3658;47.992;10.158;2024-02-15T07:04:58;21.60;36.00
7234;DHT22;3658;47.992;10.158;2024-02-15T07:07:25;21.70;36.10
7234;DHT22;3658;47.992;10.158;2024-02-15T07:09:52;21.70;36.00
7234;DHT22;3658;47.992;10.158;2024-02-15T07:12:19;21.70;36.20
7234;DHT22;3658;47.992;10.158;2024-02-15T07:14:47;21.70;37.00
7234;DHT22;3658;47.992;10.158;2024-02-15T07:17:15;21.60;37.80
7234;DHT22;3658;47.992;10.158;2024-02-15T07:19:43;21.60;38.10
7234;DHT22;3658;47.992;10.158;2024-02-15T07:22:10;21.60;38.20
7234;DHT22;3658;47.992;10.158;2024-02-15T07:24:37;21.60;38.20
7234;DHT22;3658;47.992;10.158;2024-02-15T07:27:04;21.60;38.30
7234;DHT22;3658;47.992;10.158;2024-02-15T07:29:31;21.60;38.30
7234;DHT22;3658;47.992;10.158;2024-02-15T07:31:58;21.60;38.50
7234;DHT22;3658;47.992;10.158;2024-02-15T07:34:27;21.60;38.80
7234;DHT22;3658;47.992;10.158;2024-02-15T07:36:53;21.80;39.30
7234;DHT22;3658;47.992;10.158;2024-02-15T07:39:20;21.90;39.60
7234;DHT22;3658;47.992;10.158;2024-02-15T07:41:50;22.00;39.60
7234;DHT22;3658;47.992;10.158;2024-02-15T07:44:17;22.00;39.50
7234;DHT22;3658;47.992;10.158;2024-02-15T07:46:43;22.10;39.70
7234;DHT22;3658;47.992;10.158;2024-02-15T07:49:10;22.10;39.50
7234;DHT22;3658;47.992;10.158;2024-02-15T07:51:38;22.10;39.60
7234;DHT22;3658;47.992;10.158;2024-02-15T07:54:05;22.10;39.60
7234;DHT22;3658;47.992;10.158;2024-02-15T07:56:32;22.10;39.60
7234;DHT22;3658;47.992;10.158;2024-02-15T07:59:00;22.10;39.50
7234;DHT22;3658;47.992;10.158;2024-02-15T08:01:28;22.20;39.50
7234;DHT22;3658;47.992;10.158;2024-02-15T08:03:56;22.10;39.40
7234;DHT22;3658;47.992;10.158;2024-02-15T08:06:23;22.10;39.50
7234;DHT22;3658;47.992;10.158;2024-02-15T08:08:53;22.10;39.50
7234;DHT22;3658;47.992;10.158;2024-02-15T08:11:20;22.20;39.40
7234;DHT22;3658;47.992;10.158;2024-02-15T08:13:48;22.10;39.30
7234;DHT22;3658;47.992;10.158;2024-02-15T08:16:16;22.20;39.40
7234;DHT22;3658;47.992;10.158;2024-02-15T08:18:43;22.10;39.30
7234;DHT22;3658;47.992;10.158;2024-02-15T08:21:11;22.10;39.50
7234;DHT22;3658;47.992;10.158;2024-02-15T08:23:38;22.20;39.40
7234;DHT22;3658;47.992;10.158;2024-02-15T08:26:06;22.10;39.50
7234;DHT22;3658;47.992;10.158;2024-02-15T08:28:36;22.20;39.50
7234;DHT22;3658;47.992;10.158;2024-02-15T08:31:03;22.20;39.30
7234;DHT22;3658;47.992;10.158;2024-02-15T08:33:30;22.10;39.50
7234;DHT22;3658;47.992;10.158;2024-02-15T08:35:57;22.10;39.40
7234;DHT22;3658;47.992;10.158;2024-02-15T08:38:23;22.10;39.30
7234;DHT22;3658;47.992;10.158;2024-02-15T08:40:50;22.20;40.00
7234;DHT22;3658;47.992;10.158;2024-02-15T08:43:18;22.20;39.20
7234;DHT22;3658;47.992;10.158;2024-02-15T08:45:45;22.20;39.10
7234;DHT22;3658;47.992;10.158;2024-02-15T08:48:13;22.20;39.10
7234;DHT22;3658;47.992;10.158;2024-02-15T08:50:40;22.20;39.20
7234;DHT22;3658;47.992;10.158;2024-02-15T08:53:11;22.20;39.20
7234;DHT22;3658;47.992;10.158;2024-02-15T08:55:38;22.20;39.80
7234;DHT22;3658;47.992;10.158;2024-02-15T08:58:04;22.20;39.20
7234;DHT22;3658;47.992;10.158;2024-02-15T09:00:33;22.20;39.30
7234;DHT22;3658;47.992;10.158;2024-02-15T09:02:59;22.10;39.10
7234;DHT22;3658;47.992;10.158;2024-02-15T09:05:26;22.20;39.30
7234;DHT22;3658;47.992;10.158;2024-02-15T09:07:53;22.20;39.20
7234;DHT22;3658;47.992;10.158;2024-02-15T09:10:20;22.10;39.20
7234;DHT22;3658;47.992;10.158;2024-02-15T09:12:48;22.10;39.30
7234;DHT22;3658;47.992;10.158;2024-02-15T09:15:16;22.10;39.30
7234;DHT22;3658;47.992;10.158;2024-02-15T09:17:44;22.20;39.30
7234;DHT22;3658;47.992;10.158;2024-02-15T09:20:12;22.10;39.20
7234;DHT22;3658;47.992;10.158;2024-02-15T09:22:41;22.20;39.30
7234;DHT22;3658;47.992;10.158;2024-02-15T09:25:08;22.20;39.30
7234;DHT22;3658;47.992;10.158;2024-02-15T09:27:35;22.20;39.20
7234;DHT22;3658;47.992;10.158;2024-02-15T09:30:04;22.20;39.30
7234;DHT22;3658;47.992;10.158;2024-02-15T09:32:33;22.20;39.30
7234;DHT22;3658;47.992;10.158;2024-02-15T09:35:03;22.20;39.20
7234;DHT22;3658;47.992;10.158;2024-02-15T09:37:33;22.10;39.30
7234;DHT22;3658;47.992;10.158;2024-02-15T09:40:00;22.10;39.30
7234;DHT22;3658;47.992;10.158;2024-02-15T09:42:32;22.10;39.30
7234;DHT22;3658;47.992;10.158;2024-02-15T09:45:00;21.90;39.40
7234;DHT22;3658;47.992;10.158;2024-02-15T09:47:30;22.00;39.80
7234;DHT22;3658;47.992;10.158;2024-02-15T09:49:59;22.10;40.30
7234;DHT22;3658;47.992;10.158;2024-02-15T09:52:29;22.00;40.10
7234;DHT22;3658;47.992;10.158;2024-02-15T09:55:00;22.00;39.50
7234;DHT22;3658;47.992;10.158;2024-02-15T09:57:29;22.00;39.30
7234;DHT22;3658;47.992;10.158;2024-02-15T09:59:57;22.00;39.90
7234;DHT22;3658;47.992;10.158;2024-02-15T10:02:24;22.00;39.80
7234;DHT22;3658;47.992;10.158;2024-02-15T10:04:52;22.00;39.60
7234;DHT22;3658;47.992;10.158;2024-02-15T10:07:21;22.00;39.60
7234;DHT22;3658;47.992;10.158;2024-02-15T10:09:50;22.00;39.60
7234;DHT22;3658;47.992;10.158;2024-02-15T10:12:17;22.00;39.60
7234;DHT22;3658;47.992;10.158;2024-02-15T10:14:48;22.00;39.70
7234;DHT22;3658;47.992;10.158;2024-02-15T10:17:18;22.00;39.60
7234;DHT22;3658;47.992;10.158;2024-02-15T10:19:45;21.90;39.60
7234;DHT22;3658;47.992;10.158;2024-02-15T10:22:29;21.90;39.60
7234;DHT22;3658;47.992;10.158;2024-02-15T10:25:10;21.90;39.70
7234;DHT22;3658;47.992;10.158;2024-02-15T10:27:38;21.90;39.60
7234;DHT22;3658;47.992;10.158;2024-02-15T10:30:15;21.80;39.60
7234;DHT22;3658;47.992;10.158;2024-02-15T10:32:43;21.80;39.50
7234;DHT22;3658;47.992;10.158;2024-02-15T10:35:10;21.80;39.60
7234;DHT22;3658;47.992;10.158;2024-02-15T10:37:41;21.80;39.80
7234;DHT22;3658;47.992;10.158;2024-02-15T10:40:11;21.80;39.70
7234;DHT22;3658;47.992;10.158;2024-02-15T10:42:41;21.80;39.70
7234;DHT22;3658;47.992;10.158;2024-02-15T10:45:09;21.70;39.60
7234;DHT22;3658;47.992;10.158;2024-02-15T10:47:37;21.80;40.00
7234;DHT22;3658;47.992;10.158;2024-02-15T10:50:06;21.80;40.30
7234;DHT22;3658;47.992;10.158;2024-02-15T10:52:33;21.80;40.20
7234;DHT22;3658;47.992;10.158;2024-02-15T10:55:05;21.80;40.40
7234;DHT22;3658;47.992;10.158;2024-02-15T10:57:43;21.80;40.30
7234;DHT22;3658;47.992;10.158;2024-02-15T11:00:13;21.80;40.20
7234;DHT22;3658;47.992;10.158;2024-02-15T11:02:50;21.70;40.00
7234;DHT22;3658;47.992;10.158;2024-02-15T11:05:21;21.70;40.10
7234;DHT22;3658;47.992;10.158;2024-02-15T11:07:49;21.70;40.10
7234;DHT22;3658;47.992;10.158;2024-02-15T11:10:16;21.70;40.20
7234;DHT22;3658;47.992;10.158;2024-02-15T11:12:45;21.70;40.30
7234;DHT22;3658;47.992;10.158;2024-02-15T11:15:43;21.70;40.30
7234;DHT22;3658;47.992;10.158;2024-02-15T11:18:43;21.60;40.20
7234;DHT22;3658;47.992;10.158;2024-02-15T11:21:17;21.60;40.30
7234;DHT22;3658;47.992;10.158;2024-02-15T11:23:44;21.50;40.30
7234;DHT22;3658;47.992;10.158;2024-02-15T11:26:43;21.50;40.20
7234;DHT22;3658;47.992;10.158;2024-02-15T11:29:50;21.50;40.20
7234;DHT22;3658;47.992;10.158;2024-02-15T11:32:39;21.50;40.20
7234;DHT22;3658;47.992;10.158;2024-02-15T11:35:09;21.50;40.30
7234;DHT22;3658;47.992;10.158;2024-02-15T11:37:50;21.50;40.20
7234;DHT22;3658;47.992;10.158;2024-02-15T11:40:19;21.50;40.20
7234;DHT22;3658;47.992;10.158;2024-02-15T11:42:48;21.40;40.10
7234;DHT22;3658;47.992;10.158;2024-02-15T11:45:17;21.40;40.10
7234;DHT22;3658;47.992;10.158;2024-02-15T11:47:48;21.40;41.50
7234;DHT22;3658;47.992;10.158;2024-02-15T11:50:17;21.40;40.90
7234;DHT22;3658;47.992;10.158;2024-02-15T11:52:44;21.40;40.60
7234;DHT22;3658;47.992;10.158;2024-02-15T11:55:17;21.40;40.40
7234;DHT22;3658;47.992;10.158;2024-02-15T11:57:53;21.40;40.30
7234;DHT22;3658;47.992;10.158;2024-02-15T12:00:27;21.40;40.40
7234;DHT22;3658;47.992;10.158;2024-02-15T12:03:14;21.40;40.30
7234;DHT22;3658;47.992;10.158;2024-02-15T12:05:58;21.40;40.30
7234;DHT22;3658;47.992;10.158;2024-02-15T12:08:44;21.40;41.10
7234;DHT22;3658;47.992;10.158;2024-02-15T12:11:28;21.40;42.30
7234;DHT22;3658;47.992;10.158;2024-02-15T12:14:13;21.40;41.70
7234;DHT22;3658;47.992;10.158;2024-02-15T12:17:03;21.40;40.40
7234;DHT22;3658;47.992;10.158;2024-02-15T12:19:49;21.40;38.80
7234;DHT22;3658;47.992;10.158;2024-02-15T12:22:18;21.30;38.50
7234;DHT22;3658;47.992;10.158;2024-02-15T12:24:53;21.30;37.40
7234;DHT22;3658;47.992;10.158;2024-02-15T12:27:21;21.20;37.20
7234;DHT22;3658;47.992;10.158;2024-02-15T12:29:55;21.20;36.60
7234;DHT22;3658;47.992;10.158;2024-02-15T12:32:25;21.00;36.20
7234;DHT22;3658;47.992;10.158;2024-02-15T12:34:53;21.00;35.60
7234;DHT22;3658;47.992;10.158;2024-02-15T12:37:21;21.00;35.20
7234;DHT22;3658;47.992;10.158;2024-02-15T12:39:49;21.00;34.90
7234;DHT22;3658;47.992;10.158;2024-02-15T12:42:16;21.20;35.10
7234;DHT22;3658;47.992;10.158;2024-02-15T12:44:46;21.10;35.00
7234;DHT22;3658;47.992;10.158;2024-02-15T12:47:19;21.10;35.00
7234;DHT22;3658;47.992;10.158;2024-02-15T12:49:49;21.00;34.90
7234;DHT22;3658;47.992;10.158;2024-02-15T12:52:36;21.00;34.80
7234;DHT22;3658;47.992;10.158;2024-02-15T12:55:07;21.00;34.10
7234;DHT22;3658;47.992;10.158;2024-02-15T12:57:34;21.00;34.00
7234;DHT22;3658;47.992;10.158;2024-02-15T13:00:01;21.00;33.60
7234;DHT22;3658;47.992;10.158;2024-02-15T13:02:36;21.00;33.30
7234;DHT22;3658;47.992;10.158;2024-02-15T13:05:05;21.10;33.30
7234;DHT22;3658;47.992;10.158;2024-02-15T13:07:33;21.00;33.60
7234;DHT22;3658;47.992;10.158;2024-02-15T13:10:00;21.10;33.70
7234;DHT22;3658;47.992;10.158;2024-02-15T13:12:27;21.00;33.60
7234;DHT22;3658;47.992;10.158;2024-02-15T13:14:54;21.00;33.00
7234;DHT22;3658;47.992;10.158;2024-02-15T13:17:21;21.00;32.80
7234;DHT22;3658;47.992;10.158;2024-02-15T13:19:48;21.10;32.60
7234;DHT22;3658;47.992;10.158;2024-02-15T13:22:16;21.20;32.30
7234;DHT22;3658;47.992;10.158;2024-02-15T13:24:44;21.20;31.90
7234;DHT22;3658;47.992;10.158;2024-02-15T13:27:11;21.20;31.60
7234;DHT22;3658;47.992;10.158;2024-02-15T13:29:38;21.20;31.50
7234;DHT22;3658;47.992;10.158;2024-02-15T13:32:05;21.20;31.50
7234;DHT22;3658;47.992;10.158;2024-02-15T13:34:32;21.20;31.40
7234;DHT22;3658;47.992;10.158;2024-02-15T13:36:59;21.20;31.20
7234;DHT22;3658;47.992;10.158;2024-02-15T13:39:29;21.30;31.20
7234;DHT22;3658;47.992;10.158;2024-02-15T13:41:58;21.20;31.30
7234;DHT22;3658;47.992;10.158;2024-02-15T13:44:25;21.20;31.10
7234;DHT22;3658;47.992;10.158;2024-02-15T13:46:52;21.20;31.50
7234;DHT22;3658;47.992;10.158;2024-02-15T13:49:21;21.20;31.50
7234;DHT22;3658;47.992;10.158;2024-02-15T13:51:48;21.20;31.70
7234;DHT22;3658;47.992;10.158;2024-02-15T13:54:17;21.20;31.80
7234;DHT22;3658;47.992;10.158;2024-02-15T13:56:45;21.20;31.80
7234;DHT22;3658;47.992;10.158;2024-02-15T13:59:12;21.10;32.00
7234;DHT22;3658;47.992;10.158;2024-02-15T14:01:38;21.20;32.30
7234;DHT22;3658;47.992;10.158;2024-02-15T14:04:11;21.30;32.60
7234;DHT22;3658;47.992;10.158;2024-02-15T14:06:37;21.40;32.80
7234;DHT22;3658;47.992;10.158;2024-02-15T14:09:05;21.50;32.80
7234;DHT22;3658;47.992;10.158;2024-02-15T14:11:32;21.50;33.00
7234;DHT22;3658;47.992;10.158;2024-02-15T14:14:00;21.50;33.10
7234;DHT22;3658;47.992;10.158;2024-02-15T14:16:27;21.60;33.40
7234;DHT22;3658;47.992;10.158;2024-02-15T14:18:55;21.60;33.60
7234;DHT22;3658;47.992;10.158;2024-02-15T14:21:21;21.60;33.60
7234;DHT22;3658;47.992;10.158;2024-02-15T14:23:48;21.60;33.80
7234;DHT22;3658;47.992;10.158;2024-02-15T14:26:15;21.60;33.80
7234;DHT22;3658;47.992;10.158;2024-02-15T14:28:42;21.60;33.90
7234;DHT22;3658;47.992;10.158;2024-02-15T14:31:11;21.60;34.10
7234;DHT22;3658;47.992;10.158;2024-02-15T14:33:55;21.70;34.20
7234;DHT22;3658;47.992;10.158;2024-02-15T14:36:22;21.70;34.30
7234;DHT22;3658;47.992;10.158;2024-02-15T14:38:49;21.70;34.40
7234;DHT22;3658;47.992;10.158;2024-02-15T14:41:18;21.60;34.40
7234;DHT22;3658;47.992;10.158;2024-02-15T14:43:46;21.60;34.50
7234;DHT22;3658;47.992;10.158;2024-02-15T14:46:14;21.70;34.70
7234;DHT22;3658;47.992;10.158;2024-02-15T14:48:41;21.70;34.80
7234;DHT22;3658;47.992;10.158;2024-02-15T14:51:10;21.70;34.80
7234;DHT22;3658;47.992;10.158;2024-02-15T14:53:41;21.70;34.90
7234;DHT22;3658;47.992;10.158;2024-02-15T14:56:09;21.70;35.00
7234;DHT22;3658;47.992;10.158;2024-02-15T14:58:36;21.70;35.10
7234;DHT22;3658;47.992;10.158;2024-02-15T15:01:03;21.70;35.10
7234;DHT22;3658;47.992;10.158;2024-02-15T15:03:31;21.70;35.10
7234;DHT22;3658;47.992;10.158;2024-02-15T15:05:59;21.70;35.20
7234;DHT22;3658;47.992;10.158;2024-02-15T15:08:43;21.70;35.30
7234;DHT22;3658;47.992;10.158;2024-02-15T15:11:27;21.80;35.30
7234;DHT22;3658;47.992;10.158;2024-02-15T15:14:11;21.80;35.40
7234;DHT22;3658;47.992;10.158;2024-02-15T15:16:38;21.80;35.60
7234;DHT22;3658;47.992;10.158;2024-02-15T15:19:06;21.80;35.60
7234;DHT22;3658;47.992;10.158;2024-02-15T15:21:33;21.80;35.60
7234;DHT22;3658;47.992;10.158;2024-02-15T15:24:00;21.80;35.60
7234;DHT22;3658;47.992;10.158;2024-02-15T15:26:27;21.80;35.70
7234;DHT22;3658;47.992;10.158;2024-02-15T15:28:56;21.80;35.80
7234;DHT22;3658;47.992;10.158;2024-02-15T15:31:24;21.80;35.70
7234;DHT22;3658;47.992;10.158;2024-02-15T15:33:51;21.80;35.70
7234;DHT22;3658;47.992;10.158;2024-02-15T15:36:19;21.90;35.80
7234;DHT22;3658;47.992;10.158;2024-02-15T15:38:47;21.90;35.90
7234;DHT22;3658;47.992;10.158;2024-02-15T15:41:14;21.80;35.70
7234;DHT22;3658;47.992;10.158;2024-02-15T15:43:40;21.80;36.00
7234;DHT22;3658;47.992;10.158;2024-02-15T15:46:12;21.80;36.20
7234;DHT22;3658;47.992;10.158;2024-02-15T15:48:39;21.90;36.50
7234;DHT22;3658;47.992;10.158;2024-02-15T15:51:06;21.80;36.50
7234;DHT22;3658;47.992;10.158;2024-02-15T15:53:36;21.80;36.50
7234;DHT22;3658;47.992;10.158;2024-02-15T15:56:05;21.90;36.60
7234;DHT22;3658;47.992;10.158;2024-02-15T15:58:32;21.80;36.60